sensor_id;sensor_type;location;lat;lon;timestamp;pressure;altitude;pressure_sealevel;temperature;humidity
43298;BME280;28892;55.640;37.532;2023-04-10T00:01:08;99661.66;;;11.53;35.90
43298;BME280;28892;55.640;37.532;2023-04-10T00:03:36;99660.28;;;11.57;35.69
43298;BME280;28892;55.640;37.532;2023-04-10T00:06:04;99668.84;;;11.68;35.63
43298;BME280;28892;55.640;37.532;2023-04-10T00:08:31;99659.22;;;11.67;35.54
43298;BME280;28892;55.640;37.532;2023-04-10T00:10:57;99661.66;;;11.53;35.58
43298;BME280;28892;55.640;37.532;2023-04-10T00:13:31;99653.50;;;11.55;35.58
43298;BME280;28892;55.640;37.532;2023-04-10T00:15:57;99675.50;;;11.40;36.07
43298;BME280;28892;55.640;37.532;2023-04-10T00:18:23;99655.16;;;11.32;36.13
43298;BME280;28892;55.640;37.532;2023-04-10T00:20:49;99657.22;;;11.45;35.90
43298;BME280;28892;55.640;37.532;2023-04-10T00:23:15;99664.59;;;11.58;35.89
43298;BME280;28892;55.640;37.532;2023-04-10T00:25:41;99660.53;;;11.71;35.85
43298;BME280;28892;55.640;37.532;2023-04-10T00:28:07;99662.19;;;11.72;35.59
43298;BME280;28892;55.640;37.532;2023-04-10T00:30:33;99659.44;;;11.80;35.45
43298;BME280;28892;55.640;37.532;2023-04-10T00:32:59;99650.66;;;11.80;35.30
43298;BME280;28892;55.640;37.532;2023-04-10T00:35:26;99664.69;;;11.88;35.49
43298;BME280;28892;55.640;37.532;2023-04-10T00:37:55;99660.53;;;11.86;35.04
43298;BME280;28892;55.640;37.532;2023-04-10T00:40:21;99659.25;;;11.82;35.21
43298;BME280;28892;55.640;37.532;2023-04-10T00:42:47;99664.47;;;11.75;35.21
43298;BME280;28892;55.640;37.532;2023-04-10T00:45:13;99672.38;;;11.83;35.70
43298;BME280;28892;55.640;37.532;2023-04-10T00:47:39;99673.84;;;11.86;35.52
43298;BME280;28892;55.640;37.532;2023-04-10T00:50:06;99678.75;;;11.74;35.65
43298;BME280;28892;55.640;37.532;2023-04-10T00:52:32;99674.44;;;11.50;35.98
43298;BME280;28892;55.640;37.532;2023-04-10T00:54:59;99674.16;;;11.44;36.02
43298;BME280;28892;55.640;37.532;2023-04-10T00:57:25;99682.06;;;11.53;36.51
43298;BME280;28892;55.640;37.532;2023-04-10T00:59:51;99681.59;;;11.49;36.47
43298;BME280;28892;55.640;37.532;2023-04-10T01:02:17;99687.38;;;11.53;36.39
43298;BME280;28892;55.640;37.532;2023-04-10T01:04:44;99676.41;;;11.56;36.39
43298;BME280;28892;55.640;37.532;2023-04-10T01:07:26;99672.13;;;11.70;36.58
43298;BME280;28892;55.640;37.532;2023-04-10T01:15:24;99666.91;;;11.62;36.68
43298;BME280;28892;55.640;37.532;2023-04-10T01:17:57;99668.25;;;11.57;36.80
43298;BME280;28892;55.640;37.532;2023-04-10T01:20:31;99669.72;;;11.60;36.53
43298;BME280;28892;55.640;37.532;2023-04-10T01:25:39;99677.16;;;11.41;37.09
43298;BME280;28892;55.640;37.532;2023-04-10T01:30:36;99671.56;;;11.36;36.96
43298;BME280;28892;55.640;37.532;2023-04-10T01:33:02;99661.88;;;11.20;37.33
43298;BME280;28892;55.640;37.532;2023-04-10T01:35:31;99674.13;;;11.21;37.30
43298;BME280;28892;55.640;37.532;2023-04-10T01:38:00;99673.09;;;11.30;37.48
43298;BME280;28892;55.640;37.532;2023-04-10T01:40:28;99664.81;;;11.25;37.16
43298;BME280;28892;55.640;37.532;2023-04-10T01:42:55;99667.69;;;11.15;37.75
43298;BME280;28892;55.640;37.532;2023-04-10T01:45:31;99662.91;;;11.11;37.41
43298;BME280;28892;55.640;37.532;2023-04-10T01:47:58;99674.63;;;11.25;37.52
43298;BME280;28892;55.640;37.532;2023-04-10T01:50:25;99676.69;;;11.38;37.43
43298;BME280;28892;55.640;37.532;2023-04-10T01:52:53;99669.50;;;11.46;37.37
43298;BME280;28892;55.640;37.532;2023-04-10T01:55:23;99676.56;;;11.54;37.41
43298;BME280;28892;55.640;37.532;2023-04-10T01:57:55;99679.53;;;11.36;37.49
43298;BME280;28892;55.640;37.532;2023-04-10T02:00:23;99683.47;;;11.17;37.67
43298;BME280;28892;55.640;37.532;2023-04-10T02:02:50;99674.50;;;11.18;37.93
43298;BME280;28892;55.640;37.532;2023-04-10T02:05:16;99677.22;;;11.33;37.57
43298;BME280;28892;55.640;37.532;2023-04-10T02:07:49;99680.88;;;11.55;37.76
43298;BME280;28892;55.640;37.532;2023-04-10T02:10:34;99683.31;;;11.65;37.09
43298;BME280;28892;55.640;37.532;2023-04-10T02:13:05;99670.97;;;11.72;37.45
43298;BME280;28892;55.640;37.532;2023-04-10T02:15:33;99668.50;;;11.71;37.51
43298;BME280;28892;55.640;37.532;2023-04-10T02:18:01;99675.78;;;11.69;37.15
43298;BME280;28892;55.640;37.532;2023-04-10T02:20:33;99681.38;;;11.59;37.11
43298;BME280;28892;55.640;37.532;2023-04-10T02:23:01;99679.19;;;11.63;37.12
43298;BME280;28892;55.640;37.532;2023-04-10T02:25:31;99676.22;;;11.57;37.46
43298;BME280;28892;55.640;37.532;2023-04-10T02:28:05;99669.91;;;11.58;37.40
43298;BME280;28892;55.640;37.532;2023-04-10T02:30:31;99671.09;;;11.56;37.53
43298;BME280;28892;55.640;37.532;2023-04-10T02:32:59;99681.25;;;11.52;37.58
43298;BME280;28892;55.640;37.532;2023-04-10T02:35:27;99681.41;;;11.51;38.15
43298;BME280;28892;55.640;37.532;2023-04-10T02:37:54;99684.91;;;11.51;38.01
43298;BME280;28892;55.640;37.532;2023-04-10T02:40:21;99688.91;;;11.47;38.44
43298;BME280;28892;55.640;37.532;2023-04-10T02:42:55;99675.38;;;11.34;38.69
43298;BME280;28892;55.640;37.532;2023-04-10T02:45:21;99685.03;;;11.26;38.86
43298;BME280;28892;55.640;37.532;2023-04-10T02:47:47;99670.50;;;11.14;39.75
43298;BME280;28892;55.640;37.532;2023-04-10T02:50:17;99669.22;;;11.10;39.86
43298;BME280;28892;55.640;37.532;2023-04-10T02:52:44;99672.91;;;11.00;39.92
43298;BME280;28892;55.640;37.532;2023-04-10T02:55:10;99682.91;;;10.90;40.45
43298;BME280;28892;55.640;37.532;2023-04-10T02:57:38;99686.94;;;10.86;40.28
43298;BME280;28892;55.640;37.532;2023-04-10T03:00:04;99667.09;;;10.73;40.72
43298;BME280;28892;55.640;37.532;2023-04-10T03:02:53;99687.31;;;10.74;40.97
43298;BME280;28892;55.640;37.532;2023-04-10T03:05:19;99682.00;;;10.74;40.95
43298;BME280;28892;55.640;37.532;2023-04-10T03:07:45;99683.66;;;10.67;41.31
43298;BME280;28892;55.640;37.532;2023-04-10T03:10:11;99675.56;;;10.60;42.26
43298;BME280;28892;55.640;37.532;2023-04-10T03:12:38;99682.66;;;10.76;43.29
43298;BME280;28892;55.640;37.532;2023-04-10T03:15:04;99691.72;;;10.90;43.06
43298;BME280;28892;55.640;37.532;2023-04-10T03:17:30;99687.59;;;10.80;43.86
43298;BME280;28892;55.640;37.532;2023-04-10T03:19:56;99685.47;;;10.75;44.14
43298;BME280;28892;55.640;37.532;2023-04-10T03:22:22;99683.28;;;10.87;43.71
43298;BME280;28892;55.640;37.532;2023-04-10T03:24:48;99680.75;;;10.94;43.57
43298;BME280;28892;55.640;37.532;2023-04-10T03:27:14;99676.25;;;10.94;43.70
43298;BME280;28892;55.640;37.532;2023-04-10T03:29:40;99675.44;;;10.94;43.71
43298;BME280;28892;55.640;37.532;2023-04-10T03:32:06;99683.50;;;11.09;43.27
43298;BME280;28892;55.640;37.532;2023-04-10T03:34:33;99683.66;;;11.07;43.79
43298;BME280;28892;55.640;37.532;2023-04-10T03:36:59;99665.44;;;11.04;43.88
43298;BME280;28892;55.640;37.532;2023-04-10T03:39:25;99676.06;;;11.04;44.06
43298;BME280;28892;55.640;37.532;2023-04-10T03:41:52;99678.00;;;11.10;43.94
43298;BME280;28892;55.640;37.532;2023-04-10T03:44:18;99671.22;;;11.08;43.87
43298;BME280;28892;55.640;37.532;2023-04-10T03:46:44;99678.97;;;10.86;44.65
43298;BME280;28892;55.640;37.532;2023-04-10T03:49:10;99673.81;;;10.84;44.87
43298;BME280;28892;55.640;37.532;2023-04-10T03:51:36;99681.72;;;11.01;45.73
43298;BME280;28892;55.640;37.532;2023-04-10T03:54:02;99672.03;;;11.08;46.25
43298;BME280;28892;55.640;37.532;2023-04-10T03:56:28;99667.69;;;11.15;46.48
43298;BME280;28892;55.640;37.532;2023-04-10T03:58:54;99675.44;;;11.25;46.37
43298;BME280;28892;55.640;37.532;2023-04-10T04:01:20;99666.28;;;11.28;47.08
43298;BME280;28892;55.640;37.532;2023-04-10T04:04:01;99673.03;;;11.39;46.09
43298;BME280;28892;55.640;37.532;2023-04-10T04:06:46;99676.16;;;11.42;45.40
43298;BME280;28892;55.640;37.532;2023-04-10T04:09:18;99666.06;;;11.38;46.23
43298;BME280;28892;55.640;37.532;2023-04-10T04:12:04;99677.56;;;11.30;46.04
43298;BME280;28892;55.640;37.532;2023-04-10T04:14:53;99671.78;;;11.26;45.83
43298;BME280;28892;55.640;37.532;2023-04-10T04:17:38;99663.75;;;11.35;45.76
43298;BME280;28892;55.640;37.532;2023-04-10T04:20:07;99671.31;;;11.46;45.85
43298;BME280;28892;55.640;37.532;2023-04-10T04:22:53;99676.56;;;11.54;46.78
43298;BME280;28892;55.640;37.532;2023-04-10T04:25:19;99673.09;;;11.54;46.53
43298;BME280;28892;55.640;37.532;2023-04-10T04:28:14;99677.28;;;11.71;46.29
43298;BME280;28892;55.640;37.532;2023-04-10T04:31:06;99670.38;;;11.62;45.42
43298;BME280;28892;55.640;37.532;2023-04-10T04:34:07;99667.81;;;11.69;45.52
43298;BME280;28892;55.640;37.532;2023-04-10T04:37:08;99662.81;;;11.74;45.29
43298;BME280;28892;55.640;37.532;2023-04-10T04:39:45;99671.31;;;11.69;45.39
43298;BME280;28892;55.640;37.532;2023-04-10T04:42:23;99669.84;;;11.67;45.29
43298;BME280;28892;55.640;37.532;2023-04-10T04:45:15;99663.53;;;11.68;45.77
43298;BME280;28892;55.640;37.532;2023-04-10T04:48:00;99664.63;;;11.73;46.00
43298;BME280;28892;55.640;37.532;2023-04-10T04:50:33;99657.31;;;11.76;46.53
43298;BME280;28892;55.640;37.532;2023-04-10T04:53:26;99652.19;;;11.74;43.98
43298;BME280;28892;55.640;37.532;2023-04-10T04:56:07;99652.19;;;11.74;43.56
43298;BME280;28892;55.640;37.532;2023-04-10T04:58:57;99663.63;;;11.74;43.59
43298;BME280;28892;55.640;37.532;2023-04-10T05:01:35;99672.88;;;11.64;45.33
43298;BME280;28892;55.640;37.532;2023-04-10T05:04:10;99667.06;;;11.83;43.92
43298;BME280;28892;55.640;37.532;2023-04-10T05:06:54;99674.84;;;12.08;43.79
43298;BME280;28892;55.640;37.532;2023-04-10T05:09:39;99660.72;;;12.23;43.97
43298;BME280;28892;55.640;37.532;2023-04-10T05:12:24;99663.94;;;12.33;42.18
43298;BME280;28892;55.640;37.532;2023-04-10T05:15:02;99681.22;;;12.52;41.92
43298;BME280;28892;55.640;37.532;2023-04-10T05:17:42;99671.22;;;12.54;41.37
43298;BME280;28892;55.640;37.532;2023-04-10T05:20:34;99667.72;;;12.54;40.92
43298;BME280;28892;55.640;37.532;2023-04-10T05:23:20;99676.88;;;12.66;40.64
43298;BME280;28892;55.640;37.532;2023-04-10T05:26:12;99677.88;;;12.80;40.52
43298;BME280;28892;55.640;37.532;2023-04-10T05:29:10;99673.59;;;12.64;41.82
43298;BME280;28892;55.640;37.532;2023-04-10T05:32:15;99669.09;;;12.65;42.18
43298;BME280;28892;55.640;37.532;2023-04-10T05:35:09;99671.56;;;12.66;42.29
43298;BME280;28892;55.640;37.532;2023-04-10T05:37:43;99664.16;;;12.47;42.72
43298;BME280;28892;55.640;37.532;2023-04-10T05:40:24;99683.41;;;12.49;42.85
43298;BME280;28892;55.640;37.532;2023-04-10T05:43:09;99691.19;;;12.50;42.93
43298;BME280;28892;55.640;37.532;2023-04-10T05:46:13;99690.84;;;12.38;42.30
43298;BME280;28892;55.640;37.532;2023-04-10T05:48:50;99678.09;;;12.49;40.89
43298;BME280;28892;55.640;37.532;2023-04-10T05:51:21;99681.84;;;12.54;40.60
43298;BME280;28892;55.640;37.532;2023-04-10T05:54:22;99699.75;;;12.61;42.52
43298;BME280;28892;55.640;37.532;2023-04-10T05:57:11;99696.97;;;12.84;42.50
43298;BME280;28892;55.640;37.532;2023-04-10T06:00:10;99689.69;;;13.08;41.34
43298;BME280;28892;55.640;37.532;2023-04-10T06:02:39;99699.69;;;13.21;41.41
43298;BME280;28892;55.640;37.532;2023-04-10T06:05:08;99693.53;;;13.05;42.58
43298;BME280;28892;55.640;37.532;2023-04-10T06:07:35;99695.50;;;12.96;42.69
43298;BME280;28892;55.640;37.532;2023-04-10T06:10:02;99698.84;;;13.20;43.31
43298;BME280;28892;55.640;37.532;2023-04-10T06:12:32;99696.25;;;13.27;43.00
43298;BME280;28892;55.640;37.532;2023-04-10T06:15:04;99694.94;;;13.38;42.96
43298;BME280;28892;55.640;37.532;2023-04-10T06:17:41;99695.13;;;13.36;43.65
43298;BME280;28892;55.640;37.532;2023-04-10T06:20:08;99702.88;;;13.31;43.51
43298;BME280;28892;55.640;37.532;2023-04-10T06:22:35;99699.22;;;13.17;43.30
43298;BME280;28892;55.640;37.532;2023-04-10T06:25:03;99704.16;;;13.20;43.40
43298;BME280;28892;55.640;37.532;2023-04-10T06:27:33;99711.78;;;13.38;43.71
43298;BME280;28892;55.640;37.532;2023-04-10T06:30:00;99714.22;;;13.40;42.88
43298;BME280;28892;55.640;37.532;2023-04-10T06:32:29;99704.13;;;13.35;42.73
43298;BME280;28892;55.640;37.532;2023-04-10T06:34:57;99701.28;;;13.00;42.90
43298;BME280;28892;55.640;37.532;2023-04-10T06:37:27;99700.38;;;12.78;43.96
43298;BME280;28892;55.640;37.532;2023-04-10T06:40:02;99711.63;;;13.10;42.78
43298;BME280;28892;55.640;37.532;2023-04-10T06:42:29;99705.09;;;13.12;42.15
43298;BME280;28892;55.640;37.532;2023-04-10T06:45:03;99718.16;;;13.22;41.87
43298;BME280;28892;55.640;37.532;2023-04-10T06:47:29;99714.53;;;13.30;41.85
43298;BME280;28892;55.640;37.532;2023-04-10T06:49:56;99706.09;;;13.26;41.57
43298;BME280;28892;55.640;37.532;2023-04-10T06:52:22;99718.94;;;13.38;41.21
43298;BME280;28892;55.640;37.532;2023-04-10T06:54:48;99721.03;;;13.43;41.47
43298;BME280;28892;55.640;37.532;2023-04-10T06:57:14;99717.28;;;13.37;40.85
43298;BME280;28892;55.640;37.532;2023-04-10T06:59:40;99727.13;;;13.21;41.23
43298;BME280;28892;55.640;37.532;2023-04-10T07:02:15;99707.44;;;13.01;40.60
43298;BME280;28892;55.640;37.532;2023-04-10T07:04:41;99708.38;;;12.63;41.15
43298;BME280;28892;55.640;37.532;2023-04-10T07:07:07;99706.38;;;12.65;41.05
43298;BME280;28892;55.640;37.532;2023-04-10T07:09:40;99711.22;;;12.91;40.18
43298;BME280;28892;55.640;37.532;2023-04-10T07:12:06;99709.38;;;12.77;40.78
43298;BME280;28892;55.640;37.532;2023-04-10T07:14:33;99712.94;;;12.99;40.75
43298;BME280;28892;55.640;37.532;2023-04-10T07:17:02;99724.63;;;12.98;40.30
43298;BME280;28892;55.640;37.532;2023-04-10T07:19:27;99715.44;;;13.01;40.11
43298;BME280;28892;55.640;37.532;2023-04-10T07:21:53;99712.88;;;12.92;39.79
43298;BME280;28892;55.640;37.532;2023-04-10T07:24:22;99713.41;;;12.88;39.85
43298;BME280;28892;55.640;37.532;2023-04-10T07:26:48;99708.00;;;12.96;39.93
43298;BME280;28892;55.640;37.532;2023-04-10T07:29:14;99716.59;;;13.13;39.89
43298;BME280;28892;55.640;37.532;2023-04-10T07:31:43;99717.25;;;13.15;39.23
43298;BME280;28892;55.640;37.532;2023-04-10T07:34:10;99710.16;;;13.22;38.92
43298;BME280;28892;55.640;37.532;2023-04-10T07:36:36;99712.28;;;13.12;38.89
43298;BME280;28892;55.640;37.532;2023-04-10T07:39:02;99706.63;;;12.85;39.24
43298;BME280;28892;55.640;37.532;2023-04-10T07:41:30;99718.28;;;12.99;39.51
43298;BME280;28892;55.640;37.532;2023-04-10T07:43:56;99715.63;;;13.36;39.10
43298;BME280;28892;55.640;37.532;2023-04-10T07:46:39;99707.19;;;13.32;38.78
43298;BME280;28892;55.640;37.532;2023-04-10T07:49:06;99711.44;;;13.63;38.45
43298;BME280;28892;55.640;37.532;2023-04-10T07:51:42;99712.28;;;13.92;38.22
43298;BME280;28892;55.640;37.532;2023-04-10T07:54:08;99698.84;;;13.57;38.14
43298;BME280;28892;55.640;37.532;2023-04-10T07:56:34;99711.88;;;13.45;38.56
43298;BME280;28892;55.640;37.532;2023-04-10T07:59:01;99703.63;;;13.62;38.57
43298;BME280;28892;55.640;37.532;2023-04-10T08:01:27;99713.97;;;13.93;38.43
43298;BME280;28892;55.640;37.532;2023-04-10T08:03:54;99721.97;;;13.72;38.06
43298;BME280;28892;55.640;37.532;2023-04-10T08:06:21;99707.06;;;13.04;39.41
43298;BME280;28892;55.640;37.532;2023-04-10T08:08:47;99709.06;;;13.53;38.99
43298;BME280;28892;55.640;37.532;2023-04-10T08:11:34;99710.97;;;13.81;38.78
43298;BME280;28892;55.640;37.532;2023-04-10T08:14:07;99706.34;;;13.68;38.56
43298;BME280;28892;55.640;37.532;2023-04-10T08:16:34;99708.66;;;13.72;38.90
43298;BME280;28892;55.640;37.532;2023-04-10T08:19:01;99708.19;;;13.46;39.71
43298;BME280;28892;55.640;37.532;2023-04-10T08:21:29;99716.44;;;13.73;39.24
43298;BME280;28892;55.640;37.532;2023-04-10T08:23:57;99722.81;;;14.22;38.15
43298;BME280;28892;55.640;37.532;2023-04-10T08:26:25;99710.31;;;14.23;37.94
43298;BME280;28892;55.640;37.532;2023-04-10T08:28:52;99714.38;;;14.76;37.77
43298;BME280;28892;55.640;37.532;2023-04-10T08:31:23;99707.69;;;15.00;37.30
43298;BME280;28892;55.640;37.532;2023-04-10T08:33:55;99707.94;;;15.12;36.99
43298;BME280;28892;55.640;37.532;2023-04-10T08:36:44;99704.88;;;15.22;37.02
43298;BME280;28892;55.640;37.532;2023-04-10T08:39:10;99698.00;;;15.82;35.64
43298;BME280;28892;55.640;37.532;2023-04-10T08:41:39;99703.34;;;15.82;35.40
43298;BME280;28892;55.640;37.532;2023-04-10T08:44:06;99701.75;;;16.21;34.68
43298;BME280;28892;55.640;37.532;2023-04-10T08:46:35;99700.44;;;16.51;34.30
43298;BME280;28892;55.640;37.532;2023-04-10T08:52:28;99696.41;;;16.14;33.83
43298;BME280;28892;55.640;37.532;2023-04-10T08:55:07;99696.91;;;15.29;35.13
43298;BME280;28892;55.640;37.532;2023-04-10T08:57:36;99693.72;;;15.05;35.90
43298;BME280;28892;55.640;37.532;2023-04-10T09:00:02;99697.59;;;14.60;35.98
43298;BME280;28892;55.640;37.532;2023-04-10T09:02:29;99699.09;;;14.70;35.97
43298;BME280;28892;55.640;37.532;2023-04-10T09:05:04;99689.38;;;14.55;36.36
43298;BME280;28892;55.640;37.532;2023-04-10T09:07:31;99684.88;;;14.27;36.95
43298;BME280;28892;55.640;37.532;2023-04-10T09:09:57;99696.13;;;14.22;36.78
43298;BME280;28892;55.640;37.532;2023-04-10T09:12:23;99682.28;;;14.12;37.49
43298;BME280;28892;55.640;37.532;2023-04-10T09:14:49;99689.41;;;14.62;36.72
43298;BME280;28892;55.640;37.532;2023-04-10T09:17:20;99685.72;;;15.05;36.03
43298;BME280;28892;55.640;37.532;2023-04-10T09:19:48;99703.47;;;15.26;35.88
43298;BME280;28892;55.640;37.532;2023-04-10T09:22:15;99696.72;;;15.44;35.42
43298;BME280;28892;55.640;37.532;2023-04-10T09:24:43;99700.19;;;14.82;36.07
43298;BME280;28892;55.640;37.532;2023-04-10T09:27:10;99694.66;;;14.48;36.88
43298;BME280;28892;55.640;37.532;2023-04-10T09:30:04;99693.47;;;14.86;36.10
43298;BME280;28892;55.640;37.532;2023-04-10T09:32:42;99683.88;;;15.05;35.97
43298;BME280;28892;55.640;37.532;2023-04-10T09:35:11;99677.75;;;14.34;37.00
43298;BME280;28892;55.640;37.532;2023-04-10T09:37:37;99677.13;;;14.32;37.31
43298;BME280;28892;55.640;37.532;2023-04-10T09:40:27;99677.72;;;15.12;36.88
43298;BME280;28892;55.640;37.532;2023-04-10T09:42:55;99689.31;;;15.39;36.32
43298;BME280;28892;55.640;37.532;2023-04-10T09:45:21;99683.59;;;15.62;35.61
43298;BME280;28892;55.640;37.532;2023-04-10T09:48:06;99677.84;;;15.79;35.56
43298;BME280;28892;55.640;37.532;2023-04-10T09:50:36;99688.47;;;15.25;36.13
43298;BME280;28892;55.640;37.532;2023-04-10T09:53:03;99677.66;;;14.91;36.84
43298;BME280;28892;55.640;37.532;2023-04-10T09:55:29;99681.94;;;15.41;36.36
43298;BME280;28892;55.640;37.532;2023-04-10T09:57:56;99675.78;;;15.81;35.21
43298;BME280;28892;55.640;37.532;2023-04-10T10:00:23;99676.44;;;16.03;34.92
43298;BME280;28892;55.640;37.532;2023-04-10T10:02:50;99684.00;;;16.33;34.81
43298;BME280;28892;55.640;37.532;2023-04-10T10:05:16;99675.41;;;15.98;34.23
43298;BME280;28892;55.640;37.532;2023-04-10T10:07:49;99669.91;;;15.10;35.85
43298;BME280;28892;55.640;37.532;2023-04-10T10:10:15;99675.22;;;14.97;35.95
43298;BME280;28892;55.640;37.532;2023-04-10T10:12:49;99676.53;;;14.72;35.63
43298;BME280;28892;55.640;37.532;2023-04-10T10:15:38;99685.91;;;14.97;36.35
43298;BME280;28892;55.640;37.532;2023-04-10T10:20:49;99679.69;;;15.85;34.37
43298;BME280;28892;55.640;37.532;2023-04-10T10:23:16;99684.25;;;15.85;34.63
43298;BME280;28892;55.640;37.532;2023-04-10T10:25:43;99671.25;;;15.48;34.20
43298;BME280;28892;55.640;37.532;2023-04-10T10:28:12;99679.16;;;14.65;35.80
43298;BME280;28892;55.640;37.532;2023-04-10T10:30:38;99658.50;;;15.70;33.84
43298;BME280;28892;55.640;37.532;2023-04-10T10:33:05;99659.53;;;15.62;34.09
43298;BME280;28892;55.640;37.532;2023-04-10T10:35:35;99658.91;;;15.81;33.73
43298;BME280;28892;55.640;37.532;2023-04-10T10:38:03;99661.00;;;16.12;33.45
43298;BME280;28892;55.640;37.532;2023-04-10T10:40:34;99664.28;;;16.21;32.96
43298;BME280;28892;55.640;37.532;2023-04-10T10:43:09;99662.66;;;16.13;33.45
43298;BME280;28892;55.640;37.532;2023-04-10T10:45:41;99660.78;;;16.00;33.20
43298;BME280;28892;55.640;37.532;2023-04-10T10:48:11;99657.13;;;16.74;32.81
43298;BME280;28892;55.640;37.532;2023-04-10T10:50:57;99652.97;;;17.63;32.21
43298;BME280;28892;55.640;37.532;2023-04-10T10:59:04;99652.25;;;17.74;31.58
43298;BME280;28892;55.640;37.532;2023-04-10T11:01:30;99648.84;;;16.89;31.95
43298;BME280;28892;55.640;37.532;2023-04-10T11:03:56;99658.44;;;17.10;31.58
43298;BME280;28892;55.640;37.532;2023-04-10T11:06:48;99648.19;;;17.39;31.29
43298;BME280;28892;55.640;37.532;2023-04-10T11:09:47;99652.88;;;17.12;31.52
43298;BME280;28892;55.640;37.532;2023-04-10T11:12:15;99654.75;;;16.52;32.07
43298;BME280;28892;55.640;37.532;2023-04-10T11:14:42;99643.16;;;17.17;31.31
43298;BME280;28892;55.640;37.532;2023-04-10T11:17:09;99648.16;;;17.71;30.57
43298;BME280;28892;55.640;37.532;2023-04-10T11:19:58;99652.41;;;17.22;31.08
43298;BME280;28892;55.640;37.532;2023-04-10T11:22:28;99631.84;;;16.56;32.62
43298;BME280;28892;55.640;37.532;2023-04-10T11:24:58;99633.56;;;16.89;31.63
43298;BME280;28892;55.640;37.532;2023-04-10T11:27:37;99650.22;;;16.53;33.03
43298;BME280;28892;55.640;37.532;2023-04-10T11:30:29;99645.47;;;17.71;31.39
43298;BME280;28892;55.640;37.532;2023-04-10T11:32:56;99654.66;;;18.08;30.82
43298;BME280;28892;55.640;37.532;2023-04-10T11:35:23;99639.13;;;17.91;30.75
43298;BME280;28892;55.640;37.532;2023-04-10T11:37:50;99631.28;;;16.93;31.98
43298;BME280;28892;55.640;37.532;2023-04-10T11:40:21;99639.13;;;16.95;32.06
43298;BME280;28892;55.640;37.532;2023-04-10T11:42:47;99629.31;;;17.78;31.22
43298;BME280;28892;55.640;37.532;2023-04-10T11:45:26;99625.91;;;18.71;30.54
43298;BME280;28892;55.640;37.532;2023-04-10T11:47:53;99621.22;;;18.10;30.66
43298;BME280;28892;55.640;37.532;2023-04-10T11:50:19;99623.69;;;18.68;30.13
43298;BME280;28892;55.640;37.532;2023-04-10T11:52:48;99632.00;;;19.27;29.57
43298;BME280;28892;55.640;37.532;2023-04-10T11:55:16;99638.06;;;19.23;28.73
43298;BME280;28892;55.640;37.532;2023-04-10T11:57:55;99624.47;;;18.87;29.62
43298;BME280;28892;55.640;37.532;2023-04-10T12:00:22;99634.41;;;18.31;29.96
43298;BME280;28892;55.640;37.532;2023-04-10T12:02:50;99627.94;;;17.94;30.95
43298;BME280;28892;55.640;37.532;2023-04-10T12:05:16;99619.06;;;17.43;31.61
43298;BME280;28892;55.640;37.532;2023-04-10T12:07:43;99618.13;;;16.92;32.07
43298;BME280;28892;55.640;37.532;2023-04-10T12:10:14;99609.19;;;16.59;32.79
43298;BME280;28892;55.640;37.532;2023-04-10T12:12:39;99615.69;;;16.24;32.70
43298;BME280;28892;55.640;37.532;2023-04-10T12:15:30;99621.91;;;15.91;33.76
43298;BME280;28892;55.640;37.532;2023-04-10T12:17:57;99616.78;;;15.96;33.69
43298;BME280;28892;55.640;37.532;2023-04-10T12:20:23;99613.47;;;16.01;33.74
43298;BME280;28892;55.640;37.532;2023-04-10T12:22:53;99613.25;;;15.69;34.06
43298;BME280;28892;55.640;37.532;2023-04-10T12:25:21;99611.19;;;15.71;34.17
43298;BME280;28892;55.640;37.532;2023-04-10T12:27:48;99614.09;;;15.83;34.14
43298;BME280;28892;55.640;37.532;2023-04-10T12:30:15;99613.84;;;15.84;33.87
43298;BME280;28892;55.640;37.532;2023-04-10T12:32:50;99610.19;;;15.99;34.01
43298;BME280;28892;55.640;37.532;2023-04-10T12:35:16;99599.69;;;15.97;34.27
43298;BME280;28892;55.640;37.532;2023-04-10T12:37:52;99600.28;;;15.79;34.09
43298;BME280;28892;55.640;37.532;2023-04-10T12:40:20;99602.72;;;15.06;35.25
43298;BME280;28892;55.640;37.532;2023-04-10T12:42:46;99606.44;;;15.26;35.11
43298;BME280;28892;55.640;37.532;2023-04-10T12:45:12;99600.06;;;15.20;35.20
43298;BME280;28892;55.640;37.532;2023-04-10T12:47:49;99608.31;;;15.52;34.88
43298;BME280;28892;55.640;37.532;2023-04-10T12:50:19;99601.97;;;15.67;34.64
43298;BME280;28892;55.640;37.532;2023-04-10T12:53:04;99598.03;;;15.83;34.35
43298;BME280;28892;55.640;37.532;2023-04-10T12:55:33;99600.94;;;15.61;34.42
43298;BME280;28892;55.640;37.532;2023-04-10T12:58:14;99594.31;;;15.57;34.81
43298;BME280;28892;55.640;37.532;2023-04-10T13:00:42;99596.59;;;15.46;34.33
43298;BME280;28892;55.640;37.532;2023-04-10T13:03:08;99594.28;;;15.16;34.84
43298;BME280;28892;55.640;37.532;2023-04-10T13:05:33;99590.56;;;15.04;35.58
43298;BME280;28892;55.640;37.532;2023-04-10T13:07:59;99595.56;;;15.27;35.00
43298;BME280;28892;55.640;37.532;2023-04-10T13:10:25;99590.81;;;15.49;34.84
43298;BME280;28892;55.640;37.532;2023-04-10T13:12:54;99584.88;;;15.54;35.30
43298;BME280;28892;55.640;37.532;2023-04-10T13:15:22;99589.19;;;15.75;35.55
43298;BME280;28892;55.640;37.532;2023-04-10T13:17:48;99597.81;;;15.77;35.89
43298;BME280;28892;55.640;37.532;2023-04-10T13:20:15;99601.94;;;15.60;36.14
43298;BME280;28892;55.640;37.532;2023-04-10T13:22:41;99607.28;;;15.33;36.63
43298;BME280;28892;55.640;37.532;2023-04-10T13:25:07;99605.22;;;15.48;36.94
43298;BME280;28892;55.640;37.532;2023-04-10T13:27:33;99599.88;;;15.42;37.09
43298;BME280;28892;55.640;37.532;2023-04-10T13:29:58;99605.41;;;15.27;38.30
43298;BME280;28892;55.640;37.532;2023-04-10T13:32:24;99611.75;;;15.12;40.34
43298;BME280;28892;55.640;37.532;2023-04-10T13:34:50;99608.47;;;15.03;41.99